Terminal Aerodrome Forecast
Issued by NWS Mobile, AL

Home | Current Version | Previous Version | Text Only | Print | Product List | Glossary On
Versions: 1 2 3 4 5 6 7 8 9 10 11 12 13 14 15 16 17 18 19 20 21 22 23 24 25 26 27 28 29 30 31 32 33 34 35 36 37 38 39 40 41 42 43 44 45 46 47 48
000
FTUS44 KMOB 031742
TAFMOB
TAF
KMOB 031742Z 0318/0418 14009KT P6SM OVC015
     FM032100 17012KT P6SM BKN025
     FM040300 15006KT 1/4SM FG OVC004=

USA.gov is the U.S. government's official web portal to all federal, state and local government web resources and services.